sensor_id;sensor_type;location;lat;lon;timestamp;P1;durP1;ratioP1;P2;durP2;ratioP2
37365;SDS011;23239;51.504;7.456;2022-09-17T00:01:05;14.1;;;3.1;;
37365;SDS011;23239;51.504;7.456;2022-09-17T00:06:05;8.7;;;2.2;;
37365;SDS011;23239;51.504;7.456;2022-09-17T00:11:05;10.7;;;2.6;;
37365;SDS011;23239;51.504;7.456;2022-09-17T00:16:05;9.2;;;2.7;;
37365;SDS011;23239;51.504;7.456;2022-09-17T00:21:05;8.8;;;2.4;;
37365;SDS011;23239;51.504;7.456;2022-09-17T00:26:05;10.3;;;3.2;;
37365;SDS011;23239;51.504;7.456;2022-09-17T00:31:06;10.6;;;3.3;;
37365;SDS011;23239;51.504;7.456;2022-09-17T00:36:05;11.4;;;3.9;;
37365;SDS011;23239;51.504;7.456;2022-09-17T00:41:05;14.7;;;5.2;;
37365;SDS011;23239;51.504;7.456;2022-09-17T00:46:05;15.1;;;6.1;;
37365;SDS011;23239;51.504;7.456;2022-09-17T00:51:05;16.7;;;7.1;;
37365;SDS011;23239;51.504;7.456;2022-09-17T00:56:06;16.8;;;6.8;;
37365;SDS011;23239;51.504;7.456;2022-09-17T01:01:05;12.6;;;6.6;;
37365;SDS011;23239;51.504;7.456;2022-09-17T01:06:08;17.4;;;6.8;;
37365;SDS011;23239;51.504;7.456;2022-09-17T01:11:09;17.8;;;5.7;;
37365;SDS011;23239;51.504;7.456;2022-09-17T01:16:05;11.4;;;4.3;;
37365;SDS011;23239;51.504;7.456;2022-09-17T01:21:12;13.3;;;4.2;;
37365;SDS011;23239;51.504;7.456;2022-09-17T01:26:10;10.6;;;3.9;;
37365;SDS011;23239;51.504;7.456;2022-09-17T01:31:16;12.4;;;3.4;;
37365;SDS011;23239;51.504;7.456;2022-09-17T01:36:08;11.7;;;3.1;;
37365;SDS011;23239;51.504;7.456;2022-09-17T01:41:05;13;;;3.8;;
37365;SDS011;23239;51.504;7.456;2022-09-17T01:46:06;10.3;;;3;;
37365;SDS011;23239;51.504;7.456;2022-09-17T01:51:05;12;;;3.1;;
37365;SDS011;23239;51.504;7.456;2022-09-17T01:56:05;11.1;;;3.4;;
37365;SDS011;23239;51.504;7.456;2022-09-17T02:01:05;14.2;;;3.6;;
37365;SDS011;23239;51.504;7.456;2022-09-17T02:06:05;13;;;3.5;;
37365;SDS011;23239;51.504;7.456;2022-09-17T02:11:06;13.3;;;4.1;;
37365;SDS011;23239;51.504;7.456;2022-09-17T02:16:06;12.7;;;3.8;;
37365;SDS011;23239;51.504;7.456;2022-09-17T02:21:05;15.4;;;4.7;;
37365;SDS011;23239;51.504;7.456;2022-09-17T02:26:05;14.7;;;4.5;;
37365;SDS011;23239;51.504;7.456;2022-09-17T02:31:05;14.3;;;5.1;;
37365;SDS011;23239;51.504;7.456;2022-09-17T02:36:05;12.4;;;4.2;;
37365;SDS011;23239;51.504;7.456;2022-09-17T02:41:05;13.6;;;4.7;;
37365;SDS011;23239;51.504;7.456;2022-09-17T02:46:09;14.8;;;4.3;;
37365;SDS011;23239;51.504;7.456;2022-09-17T02:51:10;14.6;;;4.1;;
37365;SDS011;23239;51.504;7.456;2022-09-17T02:56:09;15.3;;;3.9;;
37365;SDS011;23239;51.504;7.456;2022-09-17T03:01:06;14.1;;;3.8;;
37365;SDS011;23239;51.504;7.456;2022-09-17T03:06:05;14;;;4;;
37365;SDS011;23239;51.504;7.456;2022-09-17T03:11:05;12.5;;;3.5;;
37365;SDS011;23239;51.504;7.456;2022-09-17T03:16:05;14.6;;;3.9;;
37365;SDS011;23239;51.504;7.456;2022-09-17T03:21:05;15.3;;;3.9;;
37365;SDS011;23239;51.504;7.456;2022-09-17T03:26:05;12;;;3;;
37365;SDS011;23239;51.504;7.456;2022-09-17T03:31:05;17.7;;;3.9;;
37365;SDS011;23239;51.504;7.456;2022-09-17T03:36:05;14.8;;;3.3;;
37365;SDS011;23239;51.504;7.456;2022-09-17T03:41:05;17;;;3.8;;
37365;SDS011;23239;51.504;7.456;2022-09-17T03:46:05;10.9;;;3.3;;
37365;SDS011;23239;51.504;7.456;2022-09-17T03:51:05;12.4;;;3.1;;
37365;SDS011;23239;51.504;7.456;2022-09-17T03:56:05;19.6;;;3.4;;
37365;SDS011;23239;51.504;7.456;2022-09-17T04:01:05;14.3;;;3.2;;
37365;SDS011;23239;51.504;7.456;2022-09-17T04:06:05;16.6;;;3;;
37365;SDS011;23239;51.504;7.456;2022-09-17T04:11:05;19;;;3.4;;
37365;SDS011;23239;51.504;7.456;2022-09-17T04:16:05;16.2;;;3.1;;
37365;SDS011;23239;51.504;7.456;2022-09-17T04:21:05;16.1;;;2.5;;
37365;SDS011;23239;51.504;7.456;2022-09-17T04:26:05;15.9;;;3.3;;
37365;SDS011;23239;51.504;7.456;2022-09-17T04:31:05;12.7;;;2.9;;
37365;SDS011;23239;51.504;7.456;2022-09-17T04:36:05;16.8;;;2.6;;
37365;SDS011;23239;51.504;7.456;2022-09-17T04:41:05;17.4;;;2.7;;
37365;SDS011;23239;51.504;7.456;2022-09-17T04:46:05;15.2;;;2.8;;
37365;SDS011;23239;51.504;7.456;2022-09-17T04:51:05;9.9;;;2.4;;
37365;SDS011;23239;51.504;7.456;2022-09-17T04:56:05;17.5;;;2.7;;
37365;SDS011;23239;51.504;7.456;2022-09-17T05:01:05;13.5;;;2.8;;
37365;SDS011;23239;51.504;7.456;2022-09-17T05:06:05;16.4;;;2.6;;
37365;SDS011;23239;51.504;7.456;2022-09-17T05:11:05;9.1;;;2.4;;
37365;SDS011;23239;51.504;7.456;2022-09-17T05:16:05;15.9;;;3;;
37365;SDS011;23239;51.504;7.456;2022-09-17T05:21:05;16.7;;;2.9;;
37365;SDS011;23239;51.504;7.456;2022-09-17T05:26:05;10.4;;;2;;
37365;SDS011;23239;51.504;7.456;2022-09-17T05:31:05;10.9;;;2.4;;
37365;SDS011;23239;51.504;7.456;2022-09-17T05:36:05;11.4;;;2.2;;
37365;SDS011;23239;51.504;7.456;2022-09-17T05:41:05;15.3;;;2.2;;
37365;SDS011;23239;51.504;7.456;2022-09-17T05:46:05;11.7;;;2.1;;
37365;SDS011;23239;51.504;7.456;2022-09-17T05:51:05;10.7;;;2.3;;
37365;SDS011;23239;51.504;7.456;2022-09-17T05:56:05;11.9;;;1.8;;
37365;SDS011;23239;51.504;7.456;2022-09-17T06:01:05;13.9;;;2.6;;
37365;SDS011;23239;51.504;7.456;2022-09-17T06:06:05;10.1;;;1.8;;
37365;SDS011;23239;51.504;7.456;2022-09-17T06:11:05;8.2;;;1.8;;
37365;SDS011;23239;51.504;7.456;2022-09-17T06:16:05;10.5;;;2.1;;
37365;SDS011;23239;51.504;7.456;2022-09-17T06:21:05;11.7;;;2.2;;
37365;SDS011;23239;51.504;7.456;2022-09-17T06:26:05;8.1;;;1.7;;
37365;SDS011;23239;51.504;7.456;2022-09-17T06:31:05;14;;;2.3;;
37365;SDS011;23239;51.504;7.456;2022-09-17T06:36:06;8.3;;;1.8;;
37365;SDS011;23239;51.504;7.456;2022-09-17T06:41:05;11.9;;;2.2;;
37365;SDS011;23239;51.504;7.456;2022-09-17T06:46:05;8.8;;;2.1;;
37365;SDS011;23239;51.504;7.456;2022-09-17T06:51:05;11.6;;;2.2;;
37365;SDS011;23239;51.504;7.456;2022-09-17T06:56:06;10.1;;;1.8;;
37365;SDS011;23239;51.504;7.456;2022-09-17T07:01:05;8.6;;;1.8;;
37365;SDS011;23239;51.504;7.456;2022-09-17T07:06:06;7.4;;;1.8;;
37365;SDS011;23239;51.504;7.456;2022-09-17T07:11:05;9.8;;;2.1;;
37365;SDS011;23239;51.504;7.456;2022-09-17T07:16:05;11.3;;;2;;
37365;SDS011;23239;51.504;7.456;2022-09-17T07:21:05;10.2;;;1.8;;
37365;SDS011;23239;51.504;7.456;2022-09-17T07:26:05;7;;;1.5;;
37365;SDS011;23239;51.504;7.456;2022-09-17T07:31:05;9.2;;;1.8;;
37365;SDS011;23239;51.504;7.456;2022-09-17T07:36:05;12.1;;;1.9;;
37365;SDS011;23239;51.504;7.456;2022-09-17T07:41:06;8.4;;;1.7;;
37365;SDS011;23239;51.504;7.456;2022-09-17T07:46:05;9.9;;;1.8;;
37365;SDS011;23239;51.504;7.456;2022-09-17T07:51:05;8.9;;;1.6;;
37365;SDS011;23239;51.504;7.456;2022-09-17T07:56:05;5.8;;;1.4;;
37365;SDS011;23239;51.504;7.456;2022-09-17T08:01:05;8.1;;;1.8;;
37365;SDS011;23239;51.504;7.456;2022-09-17T08:06:06;8;;;1.5;;
37365;SDS011;23239;51.504;7.456;2022-09-17T08:11:06;10.8;;;1.9;;
37365;SDS011;23239;51.504;7.456;2022-09-17T08:16:05;7.8;;;1.7;;
37365;SDS011;23239;51.504;7.456;2022-09-17T08:21:05;10.4;;;2.4;;
37365;SDS011;23239;51.504;7.456;2022-09-17T08:26:05;9.2;;;1.7;;
37365;SDS011;23239;51.504;7.456;2022-09-17T08:31:05;11.6;;;1.9;;
37365;SDS011;23239;51.504;7.456;2022-09-17T08:36:06;8.6;;;1.8;;
37365;SDS011;23239;51.504;7.456;2022-09-17T08:41:08;10.4;;;2.1;;
37365;SDS011;23239;51.504;7.456;2022-09-17T08:46:06;5.1;;;1.2;;
37365;SDS011;23239;51.504;7.456;2022-09-17T08:51:05;8;;;1.4;;
37365;SDS011;23239;51.504;7.456;2022-09-17T08:56:06;5.9;;;1.6;;
37365;SDS011;23239;51.504;7.456;2022-09-17T09:01:11;8.8;;;1.4;;
37365;SDS011;23239;51.504;7.456;2022-09-17T09:06:05;7.8;;;1.3;;
37365;SDS011;23239;51.504;7.456;2022-09-17T09:11:06;6.4;;;1.3;;
37365;SDS011;23239;51.504;7.456;2022-09-17T09:16:05;11.1;;;1.5;;
37365;SDS011;23239;51.504;7.456;2022-09-17T09:21:08;5.2;;;1;;
37365;SDS011;23239;51.504;7.456;2022-09-17T09:26:07;6.1;;;1.5;;
37365;SDS011;23239;51.504;7.456;2022-09-17T09:31:08;7.2;;;1.2;;
37365;SDS011;23239;51.504;7.456;2022-09-17T09:36:05;6;;;1.4;;
37365;SDS011;23239;51.504;7.456;2022-09-17T09:41:06;7;;;1.4;;
37365;SDS011;23239;51.504;7.456;2022-09-17T09:46:16;6.7;;;1.2;;
37365;SDS011;23239;51.504;7.456;2022-09-17T09:51:09;4.9;;;1.1;;
37365;SDS011;23239;51.504;7.456;2022-09-17T09:56:09;4.7;;;1;;
37365;SDS011;23239;51.504;7.456;2022-09-17T10:01:08;6.3;;;1.2;;
37365;SDS011;23239;51.504;7.456;2022-09-17T10:06:06;6.6;;;1.2;;
37365;SDS011;23239;51.504;7.456;2022-09-17T10:11:05;3.7;;;0.9;;
37365;SDS011;23239;51.504;7.456;2022-09-17T10:16:14;4.7;;;1.3;;
37365;SDS011;23239;51.504;7.456;2022-09-17T10:21:06;5;;;1.1;;
37365;SDS011;23239;51.504;7.456;2022-09-17T10:26:05;4.3;;;0.9;;
37365;SDS011;23239;51.504;7.456;2022-09-17T10:31:05;6.2;;;1;;
37365;SDS011;23239;51.504;7.456;2022-09-17T10:36:05;3.6;;;0.9;;
37365;SDS011;23239;51.504;7.456;2022-09-17T10:41:09;4.4;;;0.9;;
37365;SDS011;23239;51.504;7.456;2022-09-17T10:46:05;3.4;;;0.8;;
37365;SDS011;23239;51.504;7.456;2022-09-17T10:51:05;4.6;;;1.2;;
37365;SDS011;23239;51.504;7.456;2022-09-17T10:56:06;4.8;;;1;;
37365;SDS011;23239;51.504;7.456;2022-09-17T11:01:07;5.5;;;1;;
37365;SDS011;23239;51.504;7.456;2022-09-17T11:06:10;4.5;;;0.9;;
37365;SDS011;23239;51.504;7.456;2022-09-17T11:11:05;3.2;;;0.8;;
37365;SDS011;23239;51.504;7.456;2022-09-17T11:16:09;2.2;;;0.8;;
37365;SDS011;23239;51.504;7.456;2022-09-17T11:21:25;3.8;;;0.6;;
37365;SDS011;23239;51.504;7.456;2022-09-17T11:26:06;4.2;;;0.9;;
37365;SDS011;23239;51.504;7.456;2022-09-17T11:31:08;4.4;;;0.6;;
37365;SDS011;23239;51.504;7.456;2022-09-17T11:36:09;9.3;;;0.8;;
37365;SDS011;23239;51.504;7.456;2022-09-17T11:41:05;2;;;0.5;;
37365;SDS011;23239;51.504;7.456;2022-09-17T11:46:06;5.6;;;0.9;;
37365;SDS011;23239;51.504;7.456;2022-09-17T11:51:07;2.2;;;0.8;;
37365;SDS011;23239;51.504;7.456;2022-09-17T11:56:07;3.5;;;0.8;;
37365;SDS011;23239;51.504;7.456;2022-09-17T12:01:06;2.7;;;0.6;;
37365;SDS011;23239;51.504;7.456;2022-09-17T12:06:06;3.9;;;0.6;;
37365;SDS011;23239;51.504;7.456;2022-09-17T12:11:05;1.5;;;0.4;;
37365;SDS011;23239;51.504;7.456;2022-09-17T12:16:07;3.1;;;0.7;;
37365;SDS011;23239;51.504;7.456;2022-09-17T12:21:05;2.5;;;0.7;;
37365;SDS011;23239;51.504;7.456;2022-09-17T12:26:08;3.3;;;0.7;;
37365;SDS011;23239;51.504;7.456;2022-09-17T12:31:07;2.8;;;0.7;;
37365;SDS011;23239;51.504;7.456;2022-09-17T12:36:11;2;;;0.8;;
37365;SDS011;23239;51.504;7.456;2022-09-17T12:41:05;3.4;;;0.8;;
37365;SDS011;23239;51.504;7.456;2022-09-17T12:46:09;3.4;;;0.8;;
37365;SDS011;23239;51.504;7.456;2022-09-17T12:51:08;3.1;;;0.7;;
37365;SDS011;23239;51.504;7.456;2022-09-17T12:56:08;2.5;;;0.9;;
37365;SDS011;23239;51.504;7.456;2022-09-17T13:01:05;1.9;;;0.7;;
37365;SDS011;23239;51.504;7.456;2022-09-17T13:06:25;3.4;;;0.6;;
37365;SDS011;23239;51.504;7.456;2022-09-17T13:11:10;3.8;;;0.5;;
37365;SDS011;23239;51.504;7.456;2022-09-17T13:16:06;3.1;;;0.5;;
37365;SDS011;23239;51.504;7.456;2022-09-17T13:21:05;5.1;;;0.7;;
37365;SDS011;23239;51.504;7.456;2022-09-17T13:26:05;3.8;;;0.9;;
37365;SDS011;23239;51.504;7.456;2022-09-17T13:31:05;4.2;;;0.9;;
37365;SDS011;23239;51.504;7.456;2022-09-17T13:36:05;2.3;;;0.6;;
37365;SDS011;23239;51.504;7.456;2022-09-17T13:41:16;3.4;;;0.6;;
37365;SDS011;23239;51.504;7.456;2022-09-17T13:46:07;2;;;0.6;;
37365;SDS011;23239;51.504;7.456;2022-09-17T13:51:40;3.4;;;0.8;;
37365;SDS011;23239;51.504;7.456;2022-09-17T13:56:26;3.8;;;0.9;;
37365;SDS011;23239;51.504;7.456;2022-09-17T14:01:05;3.3;;;0.7;;
37365;SDS011;23239;51.504;7.456;2022-09-17T14:06:44;5.3;;;1.3;;
37365;SDS011;23239;51.504;7.456;2022-09-17T14:11:21;3.6;;;0.8;;
37365;SDS011;23239;51.504;7.456;2022-09-17T14:16:21;3.1;;;1.2;;
37365;SDS011;23239;51.504;7.456;2022-09-17T14:21:08;4.7;;;1.1;;
37365;SDS011;23239;51.504;7.456;2022-09-17T14:26:05;4.1;;;1;;
37365;SDS011;23239;51.504;7.456;2022-09-17T14:31:07;7.6;;;1.2;;
37365;SDS011;23239;51.504;7.456;2022-09-17T14:36:07;3.8;;;0.8;;
37365;SDS011;23239;51.504;7.456;2022-09-17T14:41:06;3.1;;;1.1;;
37365;SDS011;23239;51.504;7.456;2022-09-17T14:46:05;4;;;0.9;;
37365;SDS011;23239;51.504;7.456;2022-09-17T14:51:21;4.1;;;0.9;;
37365;SDS011;23239;51.504;7.456;2022-09-17T14:56:06;2.8;;;0.9;;
37365;SDS011;23239;51.504;7.456;2022-09-17T15:01:05;4.1;;;0.9;;
37365;SDS011;23239;51.504;7.456;2022-09-17T15:06:12;6.4;;;1.3;;
37365;SDS011;23239;51.504;7.456;2022-09-17T15:11:05;4.3;;;1.5;;
37365;SDS011;23239;51.504;7.456;2022-09-17T15:16:06;5.4;;;1.1;;
37365;SDS011;23239;51.504;7.456;2022-09-17T15:21:09;2.6;;;0.7;;
37365;SDS011;23239;51.504;7.456;2022-09-17T15:26:05;5.4;;;1.3;;
37365;SDS011;23239;51.504;7.456;2022-09-17T15:31:05;6.2;;;1.4;;
37365;SDS011;23239;51.504;7.456;2022-09-17T15:36:08;5.9;;;1.6;;
37365;SDS011;23239;51.504;7.456;2022-09-17T15:41:36;9.2;;;1.1;;
37365;SDS011;23239;51.504;7.456;2022-09-17T15:46:17;4.8;;;1.1;;
37365;SDS011;23239;51.504;7.456;2022-09-17T15:51:11;7.1;;;1.3;;
37365;SDS011;23239;51.504;7.456;2022-09-17T15:56:05;5.8;;;1.2;;
37365;SDS011;23239;51.504;7.456;2022-09-17T16:06:10;4.9;;;1.5;;
37365;SDS011;23239;51.504;7.456;2022-09-17T16:11:05;6;;;1.7;;
37365;SDS011;23239;51.504;7.456;2022-09-17T16:16:05;7.9;;;1.5;;
37365;SDS011;23239;51.504;7.456;2022-09-17T16:21:05;7.6;;;1.6;;
37365;SDS011;23239;51.504;7.456;2022-09-17T16:26:05;6.8;;;1.4;;
37365;SDS011;23239;51.504;7.456;2022-09-17T16:31:05;8.1;;;1.8;;
37365;SDS011;23239;51.504;7.456;2022-09-17T16:36:05;6.4;;;1.7;;
37365;SDS011;23239;51.504;7.456;2022-09-17T16:41:05;11.6;;;1.8;;
37365;SDS011;23239;51.504;7.456;2022-09-17T16:46:05;11.9;;;2;;
37365;SDS011;23239;51.504;7.456;2022-09-17T16:51:05;10;;;2.1;;
37365;SDS011;23239;51.504;7.456;2022-09-17T16:56:05;11.1;;;1.7;;
37365;SDS011;23239;51.504;7.456;2022-09-17T17:01:05;7.9;;;1.8;;
37365;SDS011;23239;51.504;7.456;2022-09-17T17:06:05;5.9;;;1.8;;
37365;SDS011;23239;51.504;7.456;2022-09-17T17:11:05;7.2;;;1.6;;
37365;SDS011;23239;51.504;7.456;2022-09-17T17:16:05;8.9;;;1.6;;
37365;SDS011;23239;51.504;7.456;2022-09-17T17:21:05;11.1;;;2.2;;
37365;SDS011;23239;51.504;7.456;2022-09-17T17:26:05;8.7;;;2.2;;
37365;SDS011;23239;51.504;7.456;2022-09-17T17:31:05;9.2;;;1.8;;
37365;SDS011;23239;51.504;7.456;2022-09-17T17:36:05;8.6;;;2;;
37365;SDS011;23239;51.504;7.456;2022-09-17T17:41:05;13.3;;;2.6;;
37365;SDS011;23239;51.504;7.456;2022-09-17T17:46:05;7.6;;;2.1;;
37365;SDS011;23239;51.504;7.456;2022-09-17T17:51:06;10.9;;;2.1;;
37365;SDS011;23239;51.504;7.456;2022-09-17T17:56:05;9.9;;;2.6;;
37365;SDS011;23239;51.504;7.456;2022-09-17T18:01:09;9.4;;;2.2;;
37365;SDS011;23239;51.504;7.456;2022-09-17T18:06:05;8.1;;;2.1;;
37365;SDS011;23239;51.504;7.456;2022-09-17T18:11:06;10.8;;;1.8;;
37365;SDS011;23239;51.504;7.456;2022-09-17T18:16:05;11.1;;;2.2;;
37365;SDS011;23239;51.504;7.456;2022-09-17T18:21:06;9.2;;;1.6;;
37365;SDS011;23239;51.504;7.456;2022-09-17T18:26:05;7.3;;;1.9;;
37365;SDS011;23239;51.504;7.456;2022-09-17T18:31:05;9.5;;;2.5;;
37365;SDS011;23239;51.504;7.456;2022-09-17T18:36:05;10.3;;;2.4;;
37365;SDS011;23239;51.504;7.456;2022-09-17T18:41:05;8.2;;;2.4;;
37365;SDS011;23239;51.504;7.456;2022-09-17T18:46:05;10.4;;;2.3;;
37365;SDS011;23239;51.504;7.456;2022-09-17T18:51:05;11.7;;;2.6;;
37365;SDS011;23239;51.504;7.456;2022-09-17T18:56:05;7.1;;;2.1;;
37365;SDS011;23239;51.504;7.456;2022-09-17T19:01:05;9.9;;;2.7;;
37365;SDS011;23239;51.504;7.456;2022-09-17T19:06:06;9.6;;;2.6;;
37365;SDS011;23239;51.504;7.456;2022-09-17T19:11:05;8.1;;;1.8;;
37365;SDS011;23239;51.504;7.456;2022-09-17T19:16:05;7.8;;;2.4;;
37365;SDS011;23239;51.504;7.456;2022-09-17T19:21:05;8.4;;;1.8;;
37365;SDS011;23239;51.504;7.456;2022-09-17T19:26:05;10.2;;;2;;
37365;SDS011;23239;51.504;7.456;2022-09-17T19:31:05;10.9;;;2.8;;
37365;SDS011;23239;51.504;7.456;2022-09-17T19:36:06;11.7;;;2.2;;
37365;SDS011;23239;51.504;7.456;2022-09-17T19:41:07;8.7;;;1.9;;
37365;SDS011;23239;51.504;7.456;2022-09-17T19:46:06;9.3;;;1.9;;
37365;SDS011;23239;51.504;7.456;2022-09-17T19:51:05;12;;;2.3;;
37365;SDS011;23239;51.504;7.456;2022-09-17T19:56:05;11.7;;;2.2;;
37365;SDS011;23239;51.504;7.456;2022-09-17T20:01:05;11.5;;;2.1;;
37365;SDS011;23239;51.504;7.456;2022-09-17T20:06:06;8.8;;;2.1;;
37365;SDS011;23239;51.504;7.456;2022-09-17T20:11:05;10.4;;;2.3;;
37365;SDS011;23239;51.504;7.456;2022-09-17T20:16:05;12.5;;;2.5;;
37365;SDS011;23239;51.504;7.456;2022-09-17T20:21:05;13;;;2.4;;
37365;SDS011;23239;51.504;7.456;2022-09-17T20:26:05;12.5;;;2.9;;
37365;SDS011;23239;51.504;7.456;2022-09-17T20:31:06;7.2;;;2.2;;
37365;SDS011;23239;51.504;7.456;2022-09-17T20:36:06;11.8;;;1.9;;
37365;SDS011;23239;51.504;7.456;2022-09-17T20:41:06;10.5;;;2.5;;
37365;SDS011;23239;51.504;7.456;2022-09-17T20:46:05;8.1;;;2.2;;
37365;SDS011;23239;51.504;7.456;2022-09-17T20:51:06;9.7;;;2.4;;
37365;SDS011;23239;51.504;7.456;2022-09-17T20:56:05;8.1;;;2.3;;
37365;SDS011;23239;51.504;7.456;2022-09-17T21:01:05;10.4;;;2.3;;
37365;SDS011;23239;51.504;7.456;2022-09-17T21:06:05;9.8;;;1.8;;
37365;SDS011;23239;51.504;7.456;2022-09-17T21:11:05;10.4;;;2.1;;
37365;SDS011;23239;51.504;7.456;2022-09-17T21:16:05;9.9;;;2;;
37365;SDS011;23239;51.504;7.456;2022-09-17T21:21:06;10.1;;;2.2;;
37365;SDS011;23239;51.504;7.456;2022-09-17T21:26:06;8.5;;;2;;
37365;SDS011;23239;51.504;7.456;2022-09-17T21:31:05;10.6;;;2;;
37365;SDS011;23239;51.504;7.456;2022-09-17T21:36:06;8.4;;;1.8;;
37365;SDS011;23239;51.504;7.456;2022-09-17T21:41:06;9.1;;;1.9;;
37365;SDS011;23239;51.504;7.456;2022-09-17T21:46:06;10;;;2;;
37365;SDS011;23239;51.504;7.456;2022-09-17T21:51:06;8.7;;;2;;
37365;SDS011;23239;51.504;7.456;2022-09-17T21:56:06;9.2;;;2.2;;
37365;SDS011;23239;51.504;7.456;2022-09-17T22:01:06;7.9;;;1.7;;
37365;SDS011;23239;51.504;7.456;2022-09-17T22:06:06;7.7;;;1.5;;
37365;SDS011;23239;51.504;7.456;2022-09-17T22:11:05;8.3;;;1.9;;
37365;SDS011;23239;51.504;7.456;2022-09-17T22:16:05;7.6;;;1.9;;
37365;SDS011;23239;51.504;7.456;2022-09-17T22:21:13;10;;;1.7;;
37365;SDS011;23239;51.504;7.456;2022-09-17T22:26:05;8.1;;;1.7;;
37365;SDS011;23239;51.504;7.456;2022-09-17T22:31:06;8.2;;;1.8;;
37365;SDS011;23239;51.504;7.456;2022-09-17T22:36:06;4.7;;;1.4;;
37365;SDS011;23239;51.504;7.456;2022-09-17T22:41:06;7.9;;;1.6;;
37365;SDS011;23239;51.504;7.456;2022-09-17T22:46:09;4.1;;;1.6;;
37365;SDS011;23239;51.504;7.456;2022-09-17T22:51:05;7.4;;;1.9;;
37365;SDS011;23239;51.504;7.456;2022-09-17T22:56:07;6.9;;;1.8;;
37365;SDS011;23239;51.504;7.456;2022-09-17T23:01:06;6.4;;;1.6;;
37365;SDS011;23239;51.504;7.456;2022-09-17T23:06:06;4.8;;;1.3;;
37365;SDS011;23239;51.504;7.456;2022-09-17T23:11:06;6.4;;;1.8;;
37365;SDS011;23239;51.504;7.456;2022-09-17T23:16:06;6;;;1.6;;
37365;SDS011;23239;51.504;7.456;2022-09-17T23:21:06;6;;;1.5;;
37365;SDS011;23239;51.504;7.456;2022-09-17T23:26:08;7.5;;;1.8;;
37365;SDS011;23239;51.504;7.456;2022-09-17T23:31:06;7.4;;;1.8;;
37365;SDS011;23239;51.504;7.456;2022-09-17T23:36:06;7.7;;;1.5;;
37365;SDS011;23239;51.504;7.456;2022-09-17T23:41:06;9.3;;;1.6;;
37365;SDS011;23239;51.504;7.456;2022-09-17T23:46:05;6;;;1.6;;
37365;SDS011;23239;51.504;7.456;2022-09-17T23:51:05;7.9;;;2;;
37365;SDS011;23239;51.504;7.456;2022-09-17T23:56:08;6.7;;;1.5;;
